createdAt,value
2022-10-14T00:02:32.906Z,15.48
2022-10-14T00:05:35.757Z,15.83
2022-10-14T00:08:40.464Z,16.17
2022-10-14T00:11:43.367Z,14.57
2022-10-14T00:14:46.356Z,16.05
2022-10-14T00:17:49.269Z,16.35
2022-10-14T00:20:55.820Z,14.30
2022-10-14T00:23:59.964Z,15.35
2022-10-14T00:27:02.781Z,14.27
2022-10-14T00:30:06.219Z,15.23
2022-10-14T00:33:09.299Z,15.80
2022-10-14T00:36:14.232Z,14.50
2022-10-14T00:39:18.445Z,16.25
2022-10-14T00:42:21.060Z,14.43
2022-10-14T00:45:25.463Z,14.18
2022-10-14T00:48:28.017Z,13.85
2022-10-14T00:51:30.977Z,13.50
2022-10-14T00:54:38.701Z,14.45
2022-10-14T00:57:41.678Z,15.48
2022-10-14T01:00:44.385Z,15.05
2022-10-14T01:03:47.366Z,14.93
2022-10-14T01:07:01.386Z,14.40
2022-10-14T01:10:12.438Z,13.40
2022-10-14T01:13:25.802Z,15.25
2022-10-14T01:16:37.975Z,15.10
2022-10-14T01:20:17.700Z,15.98
2022-10-14T01:23:48.956Z,15.97
2022-10-14T01:27:15.139Z,13.43
2022-10-14T01:30:20.625Z,14.70
2022-10-14T01:33:26.508Z,13.57
2022-10-14T01:36:33.573Z,13.90
2022-10-14T01:39:43.484Z,15.23
2022-10-14T01:42:48.578Z,13.68
2022-10-14T01:45:55.435Z,14.30
2022-10-14T01:49:03.827Z,14.50
2022-10-14T01:52:10.048Z,15.05
2022-10-14T01:55:18.759Z,15.50
2022-10-14T01:58:24.597Z,13.73
2022-10-14T02:01:28.936Z,13.63
2022-10-14T02:04:31.617Z,13.68
2022-10-14T02:07:40.447Z,14.10
2022-10-14T02:11:08.047Z,14.57
2022-10-14T02:14:23.316Z,13.55
2022-10-14T02:17:31.337Z,13.82
2022-10-14T02:20:37.411Z,14.05
2022-10-14T02:23:44.096Z,15.90
2022-10-14T02:26:48.430Z,14.23
2022-10-14T02:29:53.188Z,15.68
2022-10-14T02:32:58.443Z,15.10
2022-10-14T02:36:03.091Z,14.73
2022-10-14T02:39:08.916Z,13.50
2022-10-14T02:42:11.666Z,15.13
2022-10-14T02:45:15.639Z,16.17
2022-10-14T02:48:19.704Z,14.15
2022-10-14T02:51:22.263Z,15.77
2022-10-14T02:54:24.986Z,15.00
2022-10-14T02:57:27.590Z,15.37
2022-10-14T03:00:30.372Z,15.98
2022-10-14T03:03:34.618Z,15.55
2022-10-14T03:06:37.220Z,15.07
2022-10-14T03:09:39.939Z,17.02
2022-10-14T03:12:42.504Z,14.60
2022-10-14T03:15:45.241Z,13.60
2022-10-14T03:18:49.167Z,13.90
2022-10-14T03:21:51.942Z,13.73
2022-10-14T03:24:54.473Z,14.80
2022-10-14T03:27:57.230Z,15.55
2022-10-14T03:30:59.780Z,14.85
2022-10-14T03:34:04.594Z,14.45
2022-10-14T03:37:07.748Z,14.43
2022-10-14T03:40:11.648Z,15.70
2022-10-14T03:43:14.307Z,15.52
2022-10-14T03:46:17.154Z,15.77
2022-10-14T03:49:21.084Z,14.82
2022-10-14T03:52:24.132Z,14.93
2022-10-14T03:55:26.982Z,17.00
2022-10-14T03:58:29.553Z,16.35
2022-10-14T04:01:32.223Z,15.43
2022-10-14T04:04:36.202Z,16.63
2022-10-14T04:07:39.055Z,13.73
2022-10-14T04:10:41.672Z,15.88
2022-10-14T04:13:45.293Z,14.77
2022-10-14T04:16:50.023Z,15.38
2022-10-14T04:19:54.570Z,15.50
2022-10-14T04:23:00.308Z,14.13
2022-10-14T04:26:04.579Z,15.48
2022-10-14T04:29:07.465Z,15.52
2022-10-14T04:32:10.306Z,14.93
2022-10-14T04:35:14.649Z,16.00
2022-10-14T04:38:17.202Z,16.73
2022-10-14T04:41:19.912Z,15.55
2022-10-14T04:44:22.591Z,14.52
2022-10-14T04:47:25.206Z,16.75
2022-10-14T04:50:29.450Z,14.13
2022-10-14T04:53:32.004Z,15.43
2022-10-14T04:56:34.726Z,15.65
2022-10-14T04:59:37.291Z,16.42
2022-10-14T05:02:40.113Z,17.58
2022-10-14T05:05:44.042Z,14.95
2022-10-14T05:08:46.896Z,15.77
2022-10-14T05:11:49.470Z,14.00
2022-10-14T05:14:52.204Z,16.52
2022-10-14T05:17:54.799Z,14.75
2022-10-14T05:21:00.679Z,16.27
2022-10-14T05:24:03.324Z,15.57
2022-10-14T05:27:05.952Z,16.27
2022-10-14T05:30:09.790Z,15.48
2022-10-14T05:33:13.164Z,17.40
2022-10-14T05:36:17.096Z,15.40
2022-10-14T05:39:19.807Z,15.20
2022-10-14T05:42:23.070Z,17.23
2022-10-14T05:45:26.679Z,17.48
2022-10-14T05:48:29.306Z,16.95
2022-10-14T05:51:33.658Z,15.85
2022-10-14T05:54:36.819Z,15.00
2022-10-14T05:57:39.438Z,15.52
2022-10-14T06:00:42.258Z,16.33
2022-10-14T06:03:44.891Z,16.10
2022-10-14T06:06:49.548Z,15.55
2022-10-14T06:09:52.701Z,16.93
2022-10-14T06:12:55.271Z,16.48
2022-10-14T06:15:57.992Z,15.73
2022-10-14T06:19:00.600Z,17.80
2022-10-14T06:22:04.669Z,14.30
2022-10-14T06:25:07.875Z,15.40
2022-10-14T06:28:11.304Z,15.40
2022-10-14T06:31:14.049Z,15.70
2022-10-14T06:34:16.769Z,16.27
2022-10-14T06:37:20.703Z,18.73
2022-10-14T06:40:23.419Z,17.27
2022-10-14T06:43:26.083Z,16.30
2022-10-14T06:46:28.800Z,16.48
2022-10-14T06:49:31.324Z,17.48
2022-10-14T06:52:35.253Z,15.55
2022-10-14T06:55:38.204Z,16.93
2022-10-14T06:58:40.982Z,19.92
2022-10-14T07:01:43.612Z,18.27
2022-10-14T07:04:46.333Z,18.55
2022-10-14T07:07:52.269Z,23.23
2022-10-14T07:10:55.088Z,22.67
2022-10-14T07:13:58.881Z,24.48
2022-10-14T07:17:01.508Z,25.08
2022-10-14T07:20:04.320Z,21.38
2022-10-14T07:23:08.364Z,22.13
2022-10-14T07:26:10.967Z,20.27
2022-10-14T07:29:13.620Z,19.90
2022-10-14T07:32:16.179Z,19.02
2022-10-14T07:35:20.098Z,21.23
2022-10-14T07:38:24.080Z,19.15
2022-10-14T07:41:26.729Z,20.23
2022-10-14T07:44:29.475Z,21.65
2022-10-14T07:47:33.271Z,20.05
2022-10-14T07:50:35.855Z,20.40
2022-10-14T07:53:39.997Z,22.25
2022-10-14T07:56:46.378Z,21.90
2022-10-14T07:59:49.199Z,20.85
2022-10-14T08:02:51.779Z,20.50
2022-10-14T08:06:00.428Z,22.42
2022-10-14T08:09:08.803Z,20.35
2022-10-14T08:12:11.804Z,20.30
2022-10-14T08:15:14.509Z,20.40
2022-10-14T08:18:17.217Z,20.05
2022-10-14T08:21:22.027Z,19.48
2022-10-14T08:24:26.186Z,20.27
2022-10-14T08:27:28.765Z,20.50
2022-10-14T08:30:31.497Z,20.83
2022-10-14T08:33:34.275Z,21.48
2022-10-14T08:36:36.834Z,19.95
2022-10-14T08:39:40.903Z,19.65
2022-10-14T08:42:51.849Z,23.63
2022-10-14T08:45:59.821Z,28.30
2022-10-14T08:49:08.663Z,21.08
2022-10-14T08:52:16.404Z,20.92
2022-10-14T08:55:28.897Z,18.25
2022-10-14T08:58:34.262Z,19.70
2022-10-14T09:01:46.815Z,21.50
2022-10-14T09:04:49.859Z,21.67
2022-10-14T09:07:54.985Z,21.73
2022-10-14T09:10:59.739Z,18.83
2022-10-14T09:14:03.703Z,19.37
2022-10-14T09:17:10.009Z,17.33
2022-10-14T09:20:20.086Z,17.25
2022-10-14T09:23:24.567Z,16.13
2022-10-14T09:26:38.629Z,15.75
2022-10-14T09:29:46.405Z,20.03
2022-10-14T09:32:51.933Z,16.30
2022-10-14T09:35:54.641Z,15.27
2022-10-14T09:38:59.951Z,15.23
2022-10-14T09:42:14.469Z,13.27
2022-10-14T09:45:19.850Z,12.80
2022-10-14T09:48:32.732Z,16.48
2022-10-14T09:51:36.100Z,15.18
2022-10-14T09:54:38.802Z,17.27
2022-10-14T09:57:43.038Z,13.90
2022-10-14T10:00:47.257Z,11.27
2022-10-14T10:03:51.761Z,12.45
2022-10-14T10:06:56.390Z,13.18
2022-10-14T10:10:01.513Z,13.50
2022-10-14T10:13:06.197Z,12.93
2022-10-14T10:16:19.977Z,15.20
2022-10-14T10:19:29.000Z,15.10
2022-10-14T10:22:36.644Z,10.82
2022-10-14T10:25:39.354Z,12.82
2022-10-14T10:28:47.305Z,11.48
2022-10-14T10:32:07.073Z,14.70
2022-10-14T10:35:23.709Z,12.43
2022-10-14T10:38:31.734Z,11.60
2022-10-14T10:41:50.538Z,11.65
2022-10-14T10:45:07.338Z,12.95
2022-10-14T10:48:18.546Z,11.70
2022-10-14T10:51:30.498Z,14.60
2022-10-14T10:54:44.538Z,12.52
2022-10-14T10:58:01.605Z,14.77
2022-10-14T11:01:19.085Z,16.67
2022-10-14T11:04:34.332Z,12.27
2022-10-14T11:08:05.159Z,17.20
2022-10-14T11:11:37.078Z,14.25
2022-10-14T11:15:15.619Z,14.02
2022-10-14T11:18:28.903Z,13.60
2022-10-14T11:21:40.904Z,11.23
2022-10-14T11:24:54.572Z,16.25
2022-10-14T11:28:05.499Z,19.27
2022-10-14T11:31:18.058Z,13.52
2022-10-14T11:34:39.064Z,14.70
2022-10-14T11:37:52.428Z,15.50
2022-10-14T11:41:01.865Z,14.68
2022-10-14T11:44:11.635Z,16.52
2022-10-14T11:47:20.469Z,15.80
2022-10-14T11:50:30.480Z,16.38
2022-10-14T11:53:46.165Z,18.03
2022-10-14T11:56:54.865Z,19.08
2022-10-14T12:00:17.929Z,12.63
2022-10-14T12:03:28.439Z,12.55
2022-10-14T12:06:41.703Z,13.13
2022-10-14T12:09:49.289Z,12.53
2022-10-14T12:12:52.882Z,14.50
2022-10-14T12:15:55.932Z,12.18
2022-10-14T12:18:59.285Z,13.60
2022-10-14T12:22:10.858Z,12.00
2022-10-14T12:25:17.377Z,14.53
2022-10-14T12:28:21.168Z,12.75
2022-10-14T12:31:35.749Z,11.20
2022-10-14T12:34:42.292Z,11.40
2022-10-14T12:37:54.368Z,12.75
2022-10-14T12:41:34.441Z,14.40
2022-10-14T12:44:45.671Z,13.52
2022-10-14T12:47:49.098Z,14.18
2022-10-14T12:50:58.486Z,11.20
2022-10-14T12:54:13.993Z,15.68
2022-10-14T12:57:27.425Z,14.50
2022-10-14T13:00:33.512Z,15.55
2022-10-14T13:03:44.548Z,10.80
2022-10-14T13:07:41.987Z,14.23
2022-10-14T13:10:48.061Z,11.98
2022-10-14T13:14:01.732Z,12.37
2022-10-14T13:17:25.227Z,11.45
2022-10-14T13:20:51.650Z,12.73
2022-10-14T13:23:55.670Z,13.18
2022-10-14T13:27:08.449Z,13.93
2022-10-14T13:30:20.424Z,14.17
2022-10-14T13:33:29.558Z,12.32
2022-10-14T13:36:38.000Z,10.27
2022-10-14T13:39:40.759Z,11.32
2022-10-14T13:42:47.168Z,12.15
2022-10-14T13:45:54.147Z,12.87
2022-10-14T13:48:59.293Z,11.30
2022-10-14T13:52:07.842Z,9.73
2022-10-14T13:55:17.055Z,10.25
2022-10-14T13:58:22.901Z,11.07
2022-10-14T14:01:32.235Z,10.33
2022-10-14T14:04:38.149Z,10.95
2022-10-14T14:08:21.659Z,10.65
2022-10-14T14:11:22.060Z,11.25
2022-10-14T14:14:32.520Z,9.57
2022-10-14T14:17:36.678Z,11.13
2022-10-14T14:20:39.284Z,10.20
2022-10-14T14:23:50.876Z,9.10
2022-10-14T14:26:56.015Z,9.45
2022-10-14T14:30:00.144Z,7.80
2022-10-14T14:33:05.220Z,7.73
2022-10-14T14:36:12.068Z,9.77
2022-10-14T14:39:23.819Z,10.25
2022-10-14T14:42:27.683Z,8.30
2022-10-14T14:45:36.214Z,8.85
2022-10-14T14:48:42.233Z,8.87
2022-10-14T14:51:46.187Z,9.70
2022-10-14T14:54:49.450Z,10.00
2022-10-14T14:57:57.868Z,12.38
2022-10-14T15:01:02.377Z,14.70
2022-10-14T15:04:11.937Z,12.27
2022-10-14T15:07:21.468Z,12.43
2022-10-14T15:10:26.936Z,12.05
2022-10-14T15:13:50.514Z,7.75
2022-10-14T15:16:54.631Z,11.27
2022-10-14T15:19:57.856Z,9.13
2022-10-14T15:23:00.635Z,9.40
2022-10-14T15:26:03.286Z,9.20
2022-10-14T15:29:17.826Z,8.05
2022-10-14T15:32:23.192Z,8.48
2022-10-14T15:35:26.621Z,7.87
2022-10-14T15:41:38.927Z,7.95
2022-10-14T15:44:41.494Z,8.13
2022-10-14T15:47:46.186Z,8.93
2022-10-14T15:50:49.025Z,8.27
2022-10-14T15:53:52.737Z,8.48
2022-10-14T16:00:03.977Z,8.50
2022-10-14T16:03:08.082Z,8.40
2022-10-14T16:06:10.724Z,8.80
2022-10-14T16:09:13.547Z,8.88
2022-10-14T16:12:16.711Z,8.27
2022-10-14T16:15:33.259Z,8.73
2022-10-14T16:18:37.288Z,9.25
2022-10-14T16:21:40.243Z,9.37
2022-10-14T16:24:43.137Z,10.50
2022-10-14T16:27:45.727Z,11.65
2022-10-14T16:30:50.088Z,10.15
2022-10-14T16:33:55.537Z,13.73
2022-10-14T16:36:58.130Z,14.03
2022-10-14T16:40:01.068Z,15.38
2022-10-14T16:43:03.846Z,14.57
2022-10-14T16:46:10.414Z,13.23
2022-10-14T16:49:17.270Z,13.05
2022-10-14T16:52:20.354Z,10.10
2022-10-14T16:55:23.949Z,10.15
2022-10-14T16:58:27.841Z,9.50
2022-10-14T17:01:30.674Z,9.45
2022-10-14T17:04:34.741Z,10.07
2022-10-14T17:07:37.302Z,8.63
2022-10-14T17:10:40.608Z,8.23
2022-10-14T17:13:43.353Z,8.85
2022-10-14T17:16:48.094Z,9.55
2022-10-14T17:19:53.867Z,9.52
2022-10-14T17:22:56.401Z,10.30
2022-10-14T17:25:59.239Z,8.90
2022-10-14T17:29:02.359Z,9.80
2022-10-14T17:32:05.107Z,12.80
2022-10-14T17:35:12.838Z,12.35
2022-10-14T17:38:17.792Z,13.53
2022-10-14T17:41:20.532Z,10.32
2022-10-14T17:44:23.499Z,10.15
2022-10-14T17:47:26.722Z,9.02
2022-10-14T17:50:30.806Z,10.93
2022-10-14T17:53:33.391Z,9.83
2022-10-14T17:56:37.536Z,10.82
2022-10-14T17:59:40.233Z,10.02
2022-10-14T18:02:42.860Z,8.85
2022-10-14T18:05:48.961Z,9.27
2022-10-14T18:08:53.737Z,9.43
2022-10-14T18:12:13.008Z,12.23
2022-10-14T18:15:16.078Z,8.82
2022-10-14T18:18:18.774Z,7.97
2022-10-14T18:21:23.081Z,8.52
2022-10-14T18:24:25.923Z,9.13
2022-10-14T18:27:28.625Z,8.48
2022-10-14T18:30:31.369Z,9.05
2022-10-14T18:33:35.555Z,9.13
2022-10-14T18:36:39.615Z,8.55
2022-10-14T18:39:42.301Z,9.43
2022-10-14T18:42:45.158Z,9.52
2022-10-14T18:45:47.881Z,12.85
2022-10-14T18:48:52.795Z,10.75
2022-10-14T18:51:56.733Z,9.32
2022-10-14T18:54:59.358Z,8.93
2022-10-14T18:58:02.081Z,11.05
2022-10-14T19:01:05.295Z,8.75
2022-10-14T19:04:09.417Z,9.55
2022-10-14T19:07:13.456Z,9.63
2022-10-14T19:10:16.178Z,9.23
2022-10-14T19:13:18.932Z,9.30
2022-10-14T19:16:23.468Z,9.15
2022-10-14T19:19:26.022Z,7.88
2022-10-14T19:22:30.053Z,10.85
2022-10-14T19:25:33.080Z,9.60
2022-10-14T19:28:35.996Z,9.05
2022-10-14T19:31:40.000Z,11.20
2022-10-14T19:34:47.054Z,9.77
2022-10-14T19:37:51.378Z,9.63
2022-10-14T19:40:53.992Z,8.40
2022-10-14T19:43:57.969Z,8.93
2022-10-14T19:47:00.815Z,10.25
2022-10-14T19:50:03.520Z,8.13
2022-10-14T19:53:07.590Z,8.95
2022-10-14T19:56:14.549Z,9.70
2022-10-14T19:59:17.273Z,8.48
2022-10-14T20:02:20.081Z,8.38
2022-10-14T20:05:23.016Z,9.73
2022-10-14T20:08:29.447Z,9.93
2022-10-14T20:11:32.305Z,9.37
2022-10-14T20:14:35.177Z,9.70
2022-10-14T20:17:37.869Z,11.43
2022-10-14T20:20:40.646Z,8.85
2022-10-14T20:23:46.441Z,9.70
2022-10-14T20:26:49.138Z,10.70
2022-10-14T20:29:51.955Z,9.50
2022-10-14T20:32:55.106Z,9.63
2022-10-14T20:36:01.970Z,9.77
2022-10-14T20:39:06.935Z,9.30
2022-10-14T20:42:09.613Z,10.30
2022-10-14T20:45:12.455Z,10.63
2022-10-14T20:48:15.339Z,9.45
2022-10-14T20:51:19.571Z,8.95
2022-10-14T20:54:24.140Z,10.15
2022-10-14T20:57:26.696Z,8.60
2022-10-14T21:00:32.790Z,8.55
2022-10-14T21:03:41.737Z,10.35
2022-10-14T21:06:44.733Z,9.13
2022-10-14T21:09:50.994Z,9.57
2022-10-14T21:12:53.642Z,9.17
2022-10-14T21:15:56.471Z,8.52
2022-10-14T21:19:01.865Z,9.05
2022-10-14T21:22:04.714Z,9.20
2022-10-14T21:25:09.638Z,8.63
2022-10-14T21:28:12.384Z,9.70
2022-10-14T21:31:19.277Z,10.38
2022-10-14T21:34:24.925Z,11.20
2022-10-14T21:37:27.750Z,10.77
2022-10-14T21:40:31.910Z,10.55
2022-10-14T21:43:39.020Z,13.13
2022-10-14T21:46:42.052Z,10.43
2022-10-14T21:49:45.012Z,10.83
2022-10-14T21:52:48.119Z,10.60
2022-10-14T21:55:54.502Z,11.73
2022-10-14T21:58:57.704Z,11.85
2022-10-14T22:02:00.639Z,13.40
2022-10-14T22:05:03.550Z,10.73
2022-10-14T22:08:06.378Z,11.97
2022-10-14T22:11:18.867Z,11.00
2022-10-14T22:14:23.552Z,11.20
2022-10-14T22:17:26.828Z,11.20
2022-10-14T22:20:29.847Z,12.80
2022-10-14T22:23:33.082Z,12.37
2022-10-14T22:26:40.940Z,13.48
2022-10-14T22:29:45.730Z,11.98
2022-10-14T22:32:48.698Z,12.70
2022-10-14T22:35:51.788Z,13.07
2022-10-14T22:38:56.068Z,12.53
2022-10-14T22:42:00.531Z,12.80
2022-10-14T22:45:03.369Z,14.00
2022-10-14T22:48:06.787Z,14.18
2022-10-14T22:51:11.695Z,15.10
2022-10-14T22:54:14.721Z,12.53
2022-10-14T22:57:21.862Z,16.63
2022-10-14T23:00:27.522Z,13.82
2022-10-14T23:03:31.020Z,16.27
2022-10-14T23:06:36.628Z,14.30
2022-10-14T23:09:39.782Z,17.50
2022-10-14T23:12:44.050Z,14.73
2022-10-14T23:15:56.248Z,18.38
2022-10-14T23:19:00.173Z,17.73
2022-10-14T23:22:05.432Z,18.63
2022-10-14T23:25:09.117Z,18.77
2022-10-14T23:28:13.355Z,17.20
2022-10-14T23:31:18.177Z,19.25
2022-10-14T23:34:21.357Z,19.38
2022-10-14T23:37:24.335Z,19.37
2022-10-14T23:40:27.608Z,18.20
2022-10-14T23:43:32.093Z,15.57
2022-10-14T23:46:35.062Z,19.63
2022-10-14T23:49:38.044Z,16.17
2022-10-14T23:52:40.831Z,16.88
2022-10-14T23:55:44.368Z,15.48
2022-10-14T23:58:50.268Z,20.43
